sensor_id;sensor_type;location;lat;lon;timestamp;pressure;altitude;pressure_sealevel;temperature;humidity
20909;BME280;10614;53.198;6.570;2022-09-03T00:01:58;101452.66;;;19.08;nan
20909;BME280;10614;53.198;6.570;2022-09-03T00:04:06;101445.66;;;19.06;nan
20909;BME280;10614;53.198;6.570;2022-09-03T00:06:15;101446.84;;;19.02;nan
20909;BME280;10614;53.198;6.570;2022-09-03T00:08:20;101453.13;;;19.01;nan
20909;BME280;10614;53.198;6.570;2022-09-03T00:10:29;101446.31;;;18.96;nan
20909;BME280;10614;53.198;6.570;2022-09-03T00:12:35;101448.09;;;18.96;nan
20909;BME280;10614;53.198;6.570;2022-09-03T00:14:42;101450.00;;;18.94;nan
20909;BME280;10614;53.198;6.570;2022-09-03T00:16:49;101447.53;;;18.91;nan
20909;BME280;10614;53.198;6.570;2022-09-03T00:18:56;101446.91;;;18.87;nan
20909;BME280;10614;53.198;6.570;2022-09-03T00:21:03;101446.16;;;18.85;nan
20909;BME280;10614;53.198;6.570;2022-09-03T00:23:10;101440.06;;;18.83;nan
20909;BME280;10614;53.198;6.570;2022-09-03T00:25:18;101449.97;;;18.81;nan
20909;BME280;10614;53.198;6.570;2022-09-03T00:27:25;101443.97;;;18.77;nan
20909;BME280;10614;53.198;6.570;2022-09-03T00:29:34;101442.31;;;18.75;nan
20909;BME280;10614;53.198;6.570;2022-09-03T00:31:38;101445.41;;;18.69;nan
20909;BME280;10614;53.198;6.570;2022-09-03T00:33:43;101447.31;;;18.67;nan
20909;BME280;10614;53.198;6.570;2022-09-03T00:35:49;101440.44;;;18.63;nan
20909;BME280;10614;53.198;6.570;2022-09-03T00:37:54;101434.34;;;18.61;nan
20909;BME280;10614;53.198;6.570;2022-09-03T00:39:56;101444.16;;;18.60;nan
20909;BME280;10614;53.198;6.570;2022-09-03T00:42:10;101436.25;;;18.59;nan
20909;BME280;10614;53.198;6.570;2022-09-03T00:44:41;101432.75;;;18.58;nan
20909;BME280;10614;53.198;6.570;2022-09-03T00:46:51;101439.13;;;18.55;nan
20909;BME280;10614;53.198;6.570;2022-09-03T00:49:12;101427.81;;;18.52;nan
20909;BME280;10614;53.198;6.570;2022-09-03T00:51:21;101436.00;;;18.49;nan
20909;BME280;10614;53.198;6.570;2022-09-03T00:53:34;101429.25;;;18.43;nan
20909;BME280;10614;53.198;6.570;2022-09-03T00:55:43;101439.94;;;18.43;nan
20909;BME280;10614;53.198;6.570;2022-09-03T00:57:58;101430.31;;;18.41;nan
20909;BME280;10614;53.198;6.570;2022-09-03T01:00:08;101438.41;;;18.39;nan
20909;BME280;10614;53.198;6.570;2022-09-03T01:02:17;101441.25;;;18.36;nan
20909;BME280;10614;53.198;6.570;2022-09-03T01:04:28;101446.59;;;18.36;nan
20909;BME280;10614;53.198;6.570;2022-09-03T01:06:40;101441.44;;;18.33;nan
20909;BME280;10614;53.198;6.570;2022-09-03T01:09:02;101439.94;;;18.29;nan
20909;BME280;10614;53.198;6.570;2022-09-03T01:11:19;101433.16;;;18.23;nan
20909;BME280;10614;53.198;6.570;2022-09-03T01:13:29;101438.78;;;18.19;nan
20909;BME280;10614;53.198;6.570;2022-09-03T01:15:44;101433.66;;;18.16;nan
20909;BME280;10614;53.198;6.570;2022-09-03T01:18:00;101435.66;;;18.12;nan
20909;BME280;10614;53.198;6.570;2022-09-03T01:20:17;101437.56;;;18.10;nan
20909;BME280;10614;53.198;6.570;2022-09-03T01:22:43;101438.59;;;18.07;nan
20909;BME280;10614;53.198;6.570;2022-09-03T01:25:11;101440.88;;;17.99;nan
20909;BME280;10614;53.198;6.570;2022-09-03T01:27:25;101434.16;;;17.93;nan
20909;BME280;10614;53.198;6.570;2022-09-03T01:29:36;101435.16;;;17.91;nan
20909;BME280;10614;53.198;6.570;2022-09-03T01:31:47;101439.75;;;17.89;nan
20909;BME280;10614;53.198;6.570;2022-09-03T01:33:57;101444.41;;;17.85;nan
20909;BME280;10614;53.198;6.570;2022-09-03T01:36:10;101436.59;;;17.82;nan
20909;BME280;10614;53.198;6.570;2022-09-03T01:38:20;101440.28;;;17.80;nan
20909;BME280;10614;53.198;6.570;2022-09-03T01:40:37;101437.63;;;17.80;nan
20909;BME280;10614;53.198;6.570;2022-09-03T01:42:52;101441.50;;;17.74;nan
20909;BME280;10614;53.198;6.570;2022-09-03T01:45:20;101443.50;;;17.70;nan
20909;BME280;10614;53.198;6.570;2022-09-03T01:47:36;101433.00;;;17.67;nan
20909;BME280;10614;53.198;6.570;2022-09-03T01:49:55;101432.16;;;17.67;nan
20909;BME280;10614;53.198;6.570;2022-09-03T01:52:11;101435.78;;;17.66;nan
20909;BME280;10614;53.198;6.570;2022-09-03T01:54:39;101439.50;;;17.63;nan
20909;BME280;10614;53.198;6.570;2022-09-03T01:57:13;101441.38;;;17.61;nan
20909;BME280;10614;53.198;6.570;2022-09-03T01:59:21;101437.88;;;17.61;nan
20909;BME280;10614;53.198;6.570;2022-09-03T02:01:30;101444.13;;;17.60;nan
20909;BME280;10614;53.198;6.570;2022-09-03T02:03:35;101433.56;;;17.58;nan
20909;BME280;10614;53.198;6.570;2022-09-03T02:05:38;101432.72;;;17.58;nan
20909;BME280;10614;53.198;6.570;2022-09-03T02:07:46;101437.38;;;17.54;nan
20909;BME280;10614;53.198;6.570;2022-09-03T02:09:48;101440.22;;;17.51;nan
20909;BME280;10614;53.198;6.570;2022-09-03T02:11:53;101439.47;;;17.49;nan
20909;BME280;10614;53.198;6.570;2022-09-03T02:13:56;101442.22;;;17.47;nan
20909;BME280;10614;53.198;6.570;2022-09-03T02:16:00;101436.19;;;17.44;nan
20909;BME280;10614;53.198;6.570;2022-09-03T02:18:08;101440.75;;;17.42;nan
20909;BME280;10614;53.198;6.570;2022-09-03T02:20:16;101434.78;;;17.38;nan
20909;BME280;10614;53.198;6.570;2022-09-03T02:22:20;101441.13;;;17.36;nan
20909;BME280;10614;53.198;6.570;2022-09-03T02:24:21;101436.84;;;17.33;nan
20909;BME280;10614;53.198;6.570;2022-09-03T02:26:24;101437.91;;;17.30;nan
20909;BME280;10614;53.198;6.570;2022-09-03T02:28:27;101431.13;;;17.25;nan
20909;BME280;10614;53.198;6.570;2022-09-03T02:30:29;101430.25;;;17.24;nan
20909;BME280;10614;53.198;6.570;2022-09-03T02:32:30;101430.78;;;17.15;nan
20909;BME280;10614;53.198;6.570;2022-09-03T02:34:34;101440.09;;;17.08;nan
20909;BME280;10614;53.198;6.570;2022-09-03T02:36:38;101430.66;;;17.02;nan
20909;BME280;10614;53.198;6.570;2022-09-03T02:38:42;101438.81;;;16.99;nan
20909;BME280;10614;53.198;6.570;2022-09-03T02:40:44;101426.72;;;16.94;nan
20909;BME280;10614;53.198;6.570;2022-09-03T02:42:47;101428.53;;;16.93;nan
20909;BME280;10614;53.198;6.570;2022-09-03T02:44:51;101435.81;;;16.90;nan
20909;BME280;10614;53.198;6.570;2022-09-03T02:46:57;101439.50;;;16.87;nan
20909;BME280;10614;53.198;6.570;2022-09-03T02:48:58;101439.78;;;16.82;nan
20909;BME280;10614;53.198;6.570;2022-09-03T02:51:02;101424.41;;;16.72;nan
20909;BME280;10614;53.198;6.570;2022-09-03T02:53:04;101433.25;;;16.72;nan
20909;BME280;10614;53.198;6.570;2022-09-03T02:55:06;101427.31;;;16.67;nan
20909;BME280;10614;53.198;6.570;2022-09-03T02:57:11;101421.31;;;16.63;nan
20909;BME280;10614;53.198;6.570;2022-09-03T02:59:12;101426.03;;;16.58;nan
20909;BME280;10614;53.198;6.570;2022-09-03T03:01:14;101417.53;;;16.52;nan
20909;BME280;10614;53.198;6.570;2022-09-03T03:03:15;101424.75;;;16.50;nan
20909;BME280;10614;53.198;6.570;2022-09-03T03:05:22;101431.94;;;16.48;nan
20909;BME280;10614;53.198;6.570;2022-09-03T03:07:26;101434.00;;;16.42;nan
20909;BME280;10614;53.198;6.570;2022-09-03T03:09:28;101432.28;;;16.41;nan
20909;BME280;10614;53.198;6.570;2022-09-03T03:11:30;101436.06;;;16.37;nan
20909;BME280;10614;53.198;6.570;2022-09-03T03:13:32;101428.25;;;16.34;nan
20909;BME280;10614;53.198;6.570;2022-09-03T03:15:33;101430.22;;;16.31;nan
20909;BME280;10614;53.198;6.570;2022-09-03T03:17:35;101432.03;;;16.30;nan
20909;BME280;10614;53.198;6.570;2022-09-03T03:19:36;101423.53;;;16.23;nan
20909;BME280;10614;53.198;6.570;2022-09-03T03:21:38;101431.16;;;16.30;nan
20909;BME280;10614;53.198;6.570;2022-09-03T03:23:41;101428.50;;;16.30;nan
20909;BME280;10614;53.198;6.570;2022-09-03T03:25:43;101431.16;;;16.30;nan
20909;BME280;10614;53.198;6.570;2022-09-03T03:27:44;101426.78;;;16.29;nan
20909;BME280;10614;53.198;6.570;2022-09-03T03:29:46;101430.28;;;16.29;nan
20909;BME280;10614;53.198;6.570;2022-09-03T03:31:49;101433.03;;;16.28;nan
20909;BME280;10614;53.198;6.570;2022-09-03T03:33:51;101433.19;;;16.24;nan
20909;BME280;10614;53.198;6.570;2022-09-03T03:35:53;101428.06;;;16.21;nan
20909;BME280;10614;53.198;6.570;2022-09-03T03:37:56;101434.22;;;16.22;nan
20909;BME280;10614;53.198;6.570;2022-09-03T03:39:59;101433.38;;;16.21;nan
20909;BME280;10614;53.198;6.570;2022-09-03T03:42:01;101435.34;;;16.18;nan
20909;BME280;10614;53.198;6.570;2022-09-03T03:44:04;101431.13;;;16.14;nan
20909;BME280;10614;53.198;6.570;2022-09-03T03:46:06;101433.69;;;16.15;nan
20909;BME280;10614;53.198;6.570;2022-09-03T03:48:07;101435.41;;;16.16;nan
20909;BME280;10614;53.198;6.570;2022-09-03T03:50:09;101436.44;;;16.14;nan
20909;BME280;10614;53.198;6.570;2022-09-03T03:52:10;101439.09;;;16.14;nan
20909;BME280;10614;53.198;6.570;2022-09-03T03:54:12;101430.44;;;16.10;nan
20909;BME280;10614;53.198;6.570;2022-09-03T03:56:15;101429.41;;;16.13;nan
20909;BME280;10614;53.198;6.570;2022-09-03T03:58:16;101435.66;;;16.12;nan
20909;BME280;10614;53.198;6.570;2022-09-03T04:00:18;101433.78;;;16.14;nan
20909;BME280;10614;53.198;6.570;2022-09-03T04:02:20;101432.94;;;16.13;nan
20909;BME280;10614;53.198;6.570;2022-09-03T04:04:21;101432.22;;;16.10;nan
20909;BME280;10614;53.198;6.570;2022-09-03T04:06:23;101435.66;;;16.12;nan
20909;BME280;10614;53.198;6.570;2022-09-03T04:08:25;101435.72;;;16.10;nan
20909;BME280;10614;53.198;6.570;2022-09-03T04:10:26;101424.34;;;16.08;nan
20909;BME280;10614;53.198;6.570;2022-09-03T04:12:30;101431.38;;;16.09;nan
20909;BME280;10614;53.198;6.570;2022-09-03T04:14:32;101428.78;;;16.08;nan
20909;BME280;10614;53.198;6.570;2022-09-03T04:16:34;101435.72;;;16.10;nan
20909;BME280;10614;53.198;6.570;2022-09-03T04:18:36;101432.22;;;16.10;nan
20909;BME280;10614;53.198;6.570;2022-09-03T04:20:38;101433.19;;;16.09;nan
20909;BME280;10614;53.198;6.570;2022-09-03T04:22:40;101428.91;;;16.06;nan
20909;BME280;10614;53.198;6.570;2022-09-03T04:24:41;101430.66;;;16.06;nan
20909;BME280;10614;53.198;6.570;2022-09-03T04:26:43;101435.13;;;16.05;nan
20909;BME280;10614;53.198;6.570;2022-09-03T04:28:46;101428.13;;;16.04;nan
20909;BME280;10614;53.198;6.570;2022-09-03T04:30:47;101424.75;;;16.00;nan
20909;BME280;10614;53.198;6.570;2022-09-03T04:32:49;101429.16;;;16.01;nan
20909;BME280;10614;53.198;6.570;2022-09-03T04:34:53;101423.91;;;16.00;nan
20909;BME280;10614;53.198;6.570;2022-09-03T04:36:55;101426.56;;;16.00;nan
20909;BME280;10614;53.198;6.570;2022-09-03T04:38:59;101426.56;;;16.00;nan
20909;BME280;10614;53.198;6.570;2022-09-03T04:41:01;101418.78;;;15.97;nan
20909;BME280;10614;53.198;6.570;2022-09-03T04:43:03;101418.91;;;15.94;nan
20909;BME280;10614;53.198;6.570;2022-09-03T04:45:08;101419.88;;;15.93;nan
20909;BME280;10614;53.198;6.570;2022-09-03T04:47:10;101418.22;;;15.90;nan
20909;BME280;10614;53.198;6.570;2022-09-03T04:49:12;101420.88;;;15.90;nan
20909;BME280;10614;53.198;6.570;2022-09-03T04:51:15;101421.91;;;15.88;nan
20909;BME280;10614;53.198;6.570;2022-09-03T04:53:17;101415.72;;;15.87;nan
20909;BME280;10614;53.198;6.570;2022-09-03T04:55:18;101422.06;;;15.85;nan
20909;BME280;10614;53.198;6.570;2022-09-03T04:57:20;101430.91;;;15.85;nan
20909;BME280;10614;53.198;6.570;2022-09-03T04:59:22;101429.09;;;15.86;nan
20909;BME280;10614;53.198;6.570;2022-09-03T05:01:27;101429.94;;;15.86;nan
20909;BME280;10614;53.198;6.570;2022-09-03T05:03:29;101430.91;;;15.85;nan
20909;BME280;10614;53.198;6.570;2022-09-03T05:05:31;101428.38;;;15.82;nan
20909;BME280;10614;53.198;6.570;2022-09-03T05:07:33;101423.06;;;15.82;nan
20909;BME280;10614;53.198;6.570;2022-09-03T05:09:37;101426.59;;;15.82;nan
20909;BME280;10614;53.198;6.570;2022-09-03T05:11:39;101423.94;;;15.82;nan
20909;BME280;10614;53.198;6.570;2022-09-03T05:13:41;101416.13;;;15.79;nan
20909;BME280;10614;53.198;6.570;2022-09-03T05:15:42;101427.59;;;15.80;nan
20909;BME280;10614;53.198;6.570;2022-09-03T05:17:46;101425.13;;;15.77;nan
20909;BME280;10614;53.198;6.570;2022-09-03T05:19:47;101425.19;;;15.75;nan
20909;BME280;10614;53.198;6.570;2022-09-03T05:21:49;101419.97;;;15.74;nan
20909;BME280;10614;53.198;6.570;2022-09-03T05:23:51;101420.91;;;15.73;nan
20909;BME280;10614;53.198;6.570;2022-09-03T05:25:57;101428.88;;;15.73;nan
20909;BME280;10614;53.198;6.570;2022-09-03T05:27:59;101424.50;;;15.72;nan
20909;BME280;10614;53.198;6.570;2022-09-03T05:30:02;101425.44;;;15.71;nan
20909;BME280;10614;53.198;6.570;2022-09-03T05:32:04;101429.06;;;15.68;nan
20909;BME280;10614;53.198;6.570;2022-09-03T05:34:07;101428.09;;;15.71;nan
20909;BME280;10614;53.198;6.570;2022-09-03T05:36:11;101417.53;;;15.69;nan
20909;BME280;10614;53.198;6.570;2022-09-03T05:38:13;101417.41;;;15.72;nan
20909;BME280;10614;53.198;6.570;2022-09-03T05:40:15;101420.06;;;15.72;nan
20909;BME280;10614;53.198;6.570;2022-09-03T05:42:16;101418.34;;;15.71;nan
20909;BME280;10614;53.198;6.570;2022-09-03T05:44:18;101412.22;;;15.69;nan
20909;BME280;10614;53.198;6.570;2022-09-03T05:46:23;101417.53;;;15.69;nan
20909;BME280;10614;53.198;6.570;2022-09-03T05:48:28;101411.38;;;15.69;nan
20909;BME280;10614;53.198;6.570;2022-09-03T05:50:31;101413.16;;;15.68;nan
20909;BME280;10614;53.198;6.570;2022-09-03T05:52:33;101413.31;;;15.65;nan
20909;BME280;10614;53.198;6.570;2022-09-03T05:54:34;101409.81;;;15.65;nan
20909;BME280;10614;53.198;6.570;2022-09-03T05:56:38;101414.34;;;15.62;nan
20909;BME280;10614;53.198;6.570;2022-09-03T05:58:42;101413.56;;;15.60;nan
20909;BME280;10614;53.198;6.570;2022-09-03T06:00:45;101415.34;;;15.60;nan
20909;BME280;10614;53.198;6.570;2022-09-03T06:02:49;101417.16;;;15.59;nan
20909;BME280;10614;53.198;6.570;2022-09-03T06:04:50;101411.84;;;15.59;nan
20909;BME280;10614;53.198;6.570;2022-09-03T06:06:54;101415.44;;;15.58;nan
20909;BME280;10614;53.198;6.570;2022-09-03T06:08:58;101413.63;;;15.59;nan
20909;BME280;10614;53.198;6.570;2022-09-03T06:11:00;101410.97;;;15.59;nan
20909;BME280;10614;53.198;6.570;2022-09-03T06:13:03;101409.34;;;15.56;nan
20909;BME280;10614;53.198;6.570;2022-09-03T06:15:05;101415.59;;;15.55;nan
20909;BME280;10614;53.198;6.570;2022-09-03T06:17:07;101412.94;;;15.55;nan
20909;BME280;10614;53.198;6.570;2022-09-03T06:19:12;101413.09;;;15.52;nan
20909;BME280;10614;53.198;6.570;2022-09-03T06:21:14;101417.47;;;15.53;nan
20909;BME280;10614;53.198;6.570;2022-09-03T06:23:17;101415.75;;;15.52;nan
20909;BME280;10614;53.198;6.570;2022-09-03T06:25:19;101426.38;;;15.52;nan
20909;BME280;10614;53.198;6.570;2022-09-03T06:27:21;101427.22;;;15.53;nan
20909;BME280;10614;53.198;6.570;2022-09-03T06:29:23;101422.06;;;15.50;nan
20909;BME280;10614;53.198;6.570;2022-09-03T06:31:25;101414.03;;;15.51;nan
20909;BME280;10614;53.198;6.570;2022-09-03T06:33:27;101410.53;;;15.51;nan
20909;BME280;10614;53.198;6.570;2022-09-03T06:35:30;101411.44;;;15.50;nan
20909;BME280;10614;53.198;6.570;2022-09-03T06:37:38;101409.56;;;15.52;nan
20909;BME280;10614;53.198;6.570;2022-09-03T06:39:40;101413.97;;;15.53;nan
20909;BME280;10614;53.198;6.570;2022-09-03T06:41:42;101408.56;;;15.54;nan
20909;BME280;10614;53.198;6.570;2022-09-03T06:43:44;101411.13;;;15.56;nan
20909;BME280;10614;53.198;6.570;2022-09-03T06:45:52;101408.56;;;15.54;nan
20909;BME280;10614;53.198;6.570;2022-09-03T06:47:55;101411.06;;;15.57;nan
20909;BME280;10614;53.198;6.570;2022-09-03T06:49:56;101416.28;;;15.59;nan
20909;BME280;10614;53.198;6.570;2022-09-03T06:51:59;101422.47;;;15.59;nan
20909;BME280;10614;53.198;6.570;2022-09-03T06:54:02;101415.25;;;15.61;nan
20909;BME280;10614;53.198;6.570;2022-09-03T06:56:08;101417.84;;;15.63;nan
20909;BME280;10614;53.198;6.570;2022-09-03T06:58:09;101415.13;;;15.65;nan
20909;BME280;10614;53.198;6.570;2022-09-03T07:00:12;101417.66;;;15.66;nan
20909;BME280;10614;53.198;6.570;2022-09-03T07:02:14;101419.47;;;15.66;nan
20909;BME280;10614;53.198;6.570;2022-09-03T07:04:16;101411.38;;;15.69;nan
20909;BME280;10614;53.198;6.570;2022-09-03T07:06:19;101419.19;;;15.72;nan
20909;BME280;10614;53.198;6.570;2022-09-03T07:08:20;101418.25;;;15.73;nan
20909;BME280;10614;53.198;6.570;2022-09-03T07:10:22;101423.41;;;15.76;nan
20909;BME280;10614;53.198;6.570;2022-09-03T07:12:26;101417.16;;;15.77;nan
20909;BME280;10614;53.198;6.570;2022-09-03T07:14:28;101421.44;;;15.79;nan
20909;BME280;10614;53.198;6.570;2022-09-03T07:16:32;101417.88;;;15.80;nan
20909;BME280;10614;53.198;6.570;2022-09-03T07:18:35;101423.94;;;15.82;nan
20909;BME280;10614;53.198;6.570;2022-09-03T07:20:36;101417.63;;;15.85;nan
20909;BME280;10614;53.198;6.570;2022-09-03T07:22:38;101422.75;;;15.88;nan
20909;BME280;10614;53.198;6.570;2022-09-03T07:24:39;101416.44;;;15.91;nan
20909;BME280;10614;53.198;6.570;2022-09-03T07:26:42;101416.34;;;15.92;nan
20909;BME280;10614;53.198;6.570;2022-09-03T07:28:48;101415.34;;;15.95;nan
20909;BME280;10614;53.198;6.570;2022-09-03T07:30:50;101417.88;;;15.96;nan
20909;BME280;10614;53.198;6.570;2022-09-03T07:32:52;101421.31;;;15.98;nan
20909;BME280;10614;53.198;6.570;2022-09-03T07:34:54;101415.88;;;16.01;nan
20909;BME280;10614;53.198;6.570;2022-09-03T07:36:57;101424.59;;;16.03;nan
20909;BME280;10614;53.198;6.570;2022-09-03T07:38:59;101420.06;;;16.06;nan
20909;BME280;10614;53.198;6.570;2022-09-03T07:41:02;101421.78;;;16.07;nan
20909;BME280;10614;53.198;6.570;2022-09-03T07:43:04;101421.59;;;16.10;nan
20909;BME280;10614;53.198;6.570;2022-09-03T07:45:08;101424.09;;;16.13;nan
20909;BME280;10614;53.198;6.570;2022-09-03T07:47:11;101424.88;;;16.15;nan
20909;BME280;10614;53.198;6.570;2022-09-03T07:49:14;101427.38;;;16.18;nan
20909;BME280;10614;53.198;6.570;2022-09-03T07:51:17;101423.69;;;16.20;nan
20909;BME280;10614;53.198;6.570;2022-09-03T07:53:19;101429.78;;;16.22;nan
20909;BME280;10614;53.198;6.570;2022-09-03T07:55:20;101420.00;;;16.23;nan
20909;BME280;10614;53.198;6.570;2022-09-03T07:57:22;101420.78;;;16.25;nan
20909;BME280;10614;53.198;6.570;2022-09-03T07:59:23;101424.06;;;16.30;nan
20909;BME280;10614;53.198;6.570;2022-09-03T08:01:27;101422.16;;;16.32;nan
20909;BME280;10614;53.198;6.570;2022-09-03T08:03:30;101426.44;;;16.35;nan
20909;BME280;10614;53.198;6.570;2022-09-03T08:05:32;101430.75;;;16.37;nan
20909;BME280;10614;53.198;6.570;2022-09-03T08:07:35;101428.94;;;16.38;nan
20909;BME280;10614;53.198;6.570;2022-09-03T08:09:36;101426.97;;;16.41;nan
20909;BME280;10614;53.198;6.570;2022-09-03T08:11:40;101436.56;;;16.44;nan
20909;BME280;10614;53.198;6.570;2022-09-03T08:13:43;101431.00;;;16.49;nan
20909;BME280;10614;53.198;6.570;2022-09-03T08:15:52;101434.44;;;16.51;nan
20909;BME280;10614;53.198;6.570;2022-09-03T08:17:55;101430.66;;;16.55;nan
20909;BME280;10614;53.198;6.570;2022-09-03T08:19:59;101426.97;;;16.57;nan
20909;BME280;10614;53.198;6.570;2022-09-03T08:22:00;101421.50;;;16.60;nan
20909;BME280;10614;53.198;6.570;2022-09-03T08:24:02;101422.16;;;16.64;nan
20909;BME280;10614;53.198;6.570;2022-09-03T08:26:05;101412.31;;;16.66;nan
20909;BME280;10614;53.198;6.570;2022-09-03T08:28:07;101413.06;;;16.68;nan
20909;BME280;10614;53.198;6.570;2022-09-03T08:30:09;101411.88;;;16.74;nan
20909;BME280;10614;53.198;6.570;2022-09-03T08:32:13;101419.56;;;16.78;nan
20909;BME280;10614;53.198;6.570;2022-09-03T08:34:16;101416.06;;;16.78;nan
20909;BME280;10614;53.198;6.570;2022-09-03T08:36:20;101421.16;;;16.82;nan
20909;BME280;10614;53.198;6.570;2022-09-03T08:38:22;101423.63;;;16.85;nan
20909;BME280;10614;53.198;6.570;2022-09-03T08:40:24;101417.31;;;16.88;nan
20909;BME280;10614;53.198;6.570;2022-09-03T08:42:42;101419.84;;;16.90;nan
20909;BME280;10614;53.198;6.570;2022-09-03T08:44:48;101417.91;;;16.93;nan
20909;BME280;10614;53.198;6.570;2022-09-03T08:46:59;101420.28;;;16.98;nan
20909;BME280;10614;53.198;6.570;2022-09-03T08:49:02;101422.84;;;16.99;nan
20909;BME280;10614;53.198;6.570;2022-09-03T08:51:07;101417.53;;;16.99;nan
20909;BME280;10614;53.198;6.570;2022-09-03T08:53:14;101420.69;;;17.06;nan
20909;BME280;10614;53.198;6.570;2022-09-03T08:55:24;101421.47;;;17.08;nan
20909;BME280;10614;53.198;6.570;2022-09-03T08:57:26;101420.44;;;17.11;nan
20909;BME280;10614;53.198;6.570;2022-09-03T08:59:29;101423.66;;;17.16;nan
20909;BME280;10614;53.198;6.570;2022-09-03T09:01:40;101419.03;;;17.19;nan
20909;BME280;10614;53.198;6.570;2022-09-03T09:03:52;101420.47;;;17.25;nan
20909;BME280;10614;53.198;6.570;2022-09-03T09:06:10;101415.06;;;17.26;nan
20909;BME280;10614;53.198;6.570;2022-09-03T09:08:14;101416.69;;;17.29;nan
20909;BME280;10614;53.198;6.570;2022-09-03T09:10:24;101421.94;;;17.30;nan
20909;BME280;10614;53.198;6.570;2022-09-03T09:12:33;101409.47;;;17.31;nan
20909;BME280;10614;53.198;6.570;2022-09-03T09:14:43;101417.09;;;17.37;nan
20909;BME280;10614;53.198;6.570;2022-09-03T09:16:51;101424.72;;;17.43;nan
20909;BME280;10614;53.198;6.570;2022-09-03T09:19:08;101412.94;;;17.47;nan
20909;BME280;10614;53.198;6.570;2022-09-03T09:21:16;101416.38;;;17.49;nan
20909;BME280;10614;53.198;6.570;2022-09-03T09:23:24;101416.16;;;17.52;nan
20909;BME280;10614;53.198;6.570;2022-09-03T09:25:28;101411.41;;;17.58;nan
20909;BME280;10614;53.198;6.570;2022-09-03T09:27:32;101408.59;;;17.61;nan
20909;BME280;10614;53.198;6.570;2022-09-03T09:29:35;101416.31;;;17.65;nan
20909;BME280;10614;53.198;6.570;2022-09-03T09:31:39;101417.81;;;17.69;nan
20909;BME280;10614;53.198;6.570;2022-09-03T09:33:44;101421.25;;;17.71;nan
20909;BME280;10614;53.198;6.570;2022-09-03T09:35:47;101415.72;;;17.75;nan
20909;BME280;10614;53.198;6.570;2022-09-03T09:37:52;101417.44;;;17.76;nan
20909;BME280;10614;53.198;6.570;2022-09-03T09:39:56;101420.72;;;17.81;nan
20909;BME280;10614;53.198;6.570;2022-09-03T09:41:58;101419.50;;;17.86;nan
20909;BME280;10614;53.198;6.570;2022-09-03T09:44:03;101415.59;;;17.92;nan
20909;BME280;10614;53.198;6.570;2022-09-03T09:46:09;101412.63;;;17.97;nan
20909;BME280;10614;53.198;6.570;2022-09-03T09:48:19;101417.69;;;18.01;nan
20909;BME280;10614;53.198;6.570;2022-09-03T09:50:21;101416.56;;;18.05;nan
20909;BME280;10614;53.198;6.570;2022-09-03T09:52:24;101411.03;;;18.08;nan
20909;BME280;10614;53.198;6.570;2022-09-03T09:54:29;101404.56;;;18.12;nan
20909;BME280;10614;53.198;6.570;2022-09-03T09:56:30;101405.19;;;18.16;nan
20909;BME280;10614;53.198;6.570;2022-09-03T09:58:33;101411.28;;;18.18;nan
20909;BME280;10614;53.198;6.570;2022-09-03T10:00:39;101414.44;;;18.25;nan
20909;BME280;10614;53.198;6.570;2022-09-03T10:02:47;101415.84;;;18.30;nan
20909;BME280;10614;53.198;6.570;2022-09-03T10:04:49;101409.38;;;18.34;nan
20909;BME280;10614;53.198;6.570;2022-09-03T10:06:53;101409.00;;;18.41;nan
20909;BME280;10614;53.198;6.570;2022-09-03T10:09:05;101400.69;;;18.45;nan
20909;BME280;10614;53.198;6.570;2022-09-03T10:11:08;101405.75;;;18.50;nan
20909;BME280;10614;53.198;6.570;2022-09-03T10:13:13;101406.38;;;18.53;nan
20909;BME280;10614;53.198;6.570;2022-09-03T10:15:22;101397.78;;;18.63;nan
20909;BME280;10614;53.198;6.570;2022-09-03T10:17:28;101407.31;;;18.67;nan
20909;BME280;10614;53.198;6.570;2022-09-03T10:19:41;101397.94;;;18.74;nan
20909;BME280;10614;53.198;6.570;2022-09-03T10:22:07;101400.25;;;18.80;nan
20909;BME280;10614;53.198;6.570;2022-09-03T10:24:20;101405.28;;;18.85;nan
20909;BME280;10614;53.198;6.570;2022-09-03T10:26:28;101394.28;;;18.89;nan
20909;BME280;10614;53.198;6.570;2022-09-03T10:28:30;101394.84;;;18.94;nan
20909;BME280;10614;53.198;6.570;2022-09-03T10:30:48;101398.81;;;19.02;nan
20909;BME280;10614;53.198;6.570;2022-09-03T10:33:01;101385.72;;;19.11;nan
20909;BME280;10614;53.198;6.570;2022-09-03T10:35:12;101391.50;;;19.18;nan
20909;BME280;10614;53.198;6.570;2022-09-03T10:37:27;101386.69;;;19.23;nan
20909;BME280;10614;53.198;6.570;2022-09-03T10:39:43;101388.22;;;19.27;nan
20909;BME280;10614;53.198;6.570;2022-09-03T10:41:59;101397.50;;;19.34;nan
20909;BME280;10614;53.198;6.570;2022-09-03T10:44:28;101391.72;;;19.40;nan
20909;BME280;10614;53.198;6.570;2022-09-03T10:46:39;101395.69;;;19.48;nan
20909;BME280;10614;53.198;6.570;2022-09-03T10:49:01;101386.66;;;19.50;nan
20909;BME280;10614;53.198;6.570;2022-09-03T10:51:15;101397.22;;;19.65;nan
20909;BME280;10614;53.198;6.570;2022-09-03T10:53:29;101390.63;;;19.70;nan
20909;BME280;10614;53.198;6.570;2022-09-03T10:55:43;101392.97;;;19.75;nan
20909;BME280;10614;53.198;6.570;2022-09-03T10:57:59;101383.78;;;19.79;nan
20909;BME280;10614;53.198;6.570;2022-09-03T11:00:10;101386.13;;;19.84;nan
20909;BME280;10614;53.198;6.570;2022-09-03T11:02:23;101389.44;;;19.87;nan
20909;BME280;10614;53.198;6.570;2022-09-03T11:04:43;101383.75;;;19.92;nan
20909;BME280;10614;53.198;6.570;2022-09-03T11:06:50;101386.94;;;19.97;nan
20909;BME280;10614;53.198;6.570;2022-09-03T11:08:58;101384.72;;;20.03;nan
20909;BME280;10614;53.198;6.570;2022-09-03T11:11:09;101383.09;;;20.14;nan
20909;BME280;10614;53.198;6.570;2022-09-03T11:13:17;101383.63;;;20.19;nan
20909;BME280;10614;53.198;6.570;2022-09-03T11:15:25;101382.31;;;20.24;nan